Terminal Aerodrome Forecast
Issued by NWS

Home | Current Version | Previous Version | Text Only | Print | Product List | Glossary On
Versions: 1 2 3 4 5 6 7 8 9 10 11 12 13 14 15 16 17
000
FTUS43 KMPX 311131
TAFRNH
TAF
KRNH 311131Z 3112/0112 35006KT P6SM OVC015
     FM311800 02009KT P6SM BKN020 BKN150
     FM312100 03010KT P6SM SCT020
     FM010000 03012G22KT P6SM SCT025 BKN060=

USA.gov is the U.S. government's official web portal to all federal, state and local government web resources and services.